sensor_id;sensor_type;location;lat;lon;timestamp;P1;durP1;ratioP1;P2;durP2;ratioP2
76202;SDS011;64985;46.364;17.008;2022-11-15T00:01:34;40.63;;;22.23;;
76202;SDS011;64985;46.364;17.008;2022-11-15T00:04:39;52.72;;;28.23;;
76202;SDS011;64985;46.364;17.008;2022-11-15T00:07:41;50.88;;;26.83;;
76202;SDS011;64985;46.364;17.008;2022-11-15T00:10:56;44.95;;;25.45;;
76202;SDS011;64985;46.364;17.008;2022-11-15T00:14:00;46.85;;;25.35;;
76202;SDS011;64985;46.364;17.008;2022-11-15T00:17:06;47.20;;;24.15;;
76202;SDS011;64985;46.364;17.008;2022-11-15T00:20:08;42.38;;;24.13;;
76202;SDS011;64985;46.364;17.008;2022-11-15T00:23:11;51.40;;;25.38;;
76202;SDS011;64985;46.364;17.008;2022-11-15T00:29:17;40.88;;;21.27;;
76202;SDS011;64985;46.364;17.008;2022-11-15T00:32:51;40.33;;;22.67;;
76202;SDS011;64985;46.364;17.008;2022-11-15T00:36:05;40.80;;;22.67;;
76202;SDS011;64985;46.364;17.008;2022-11-15T00:39:11;44.03;;;24.30;;
76202;SDS011;64985;46.364;17.008;2022-11-15T00:51:23;43.10;;;24.10;;
76202;SDS011;64985;46.364;17.008;2022-11-15T00:54:26;42.15;;;24.48;;
76202;SDS011;64985;46.364;17.008;2022-11-15T00:57:29;36.28;;;21.35;;
76202;SDS011;64985;46.364;17.008;2022-11-15T01:03:34;39.38;;;22.75;;
76202;SDS011;64985;46.364;17.008;2022-11-15T01:06:37;39.10;;;21.90;;
76202;SDS011;64985;46.364;17.008;2022-11-15T01:12:42;44.97;;;24.05;;
76202;SDS011;64985;46.364;17.008;2022-11-15T01:15:45;47.95;;;26.05;;
76202;SDS011;64985;46.364;17.008;2022-11-15T01:18:47;43.15;;;24.75;;
76202;SDS011;64985;46.364;17.008;2022-11-15T01:21:50;44.80;;;24.10;;
76202;SDS011;64985;46.364;17.008;2022-11-15T01:27:55;42.27;;;23.70;;
76202;SDS011;64985;46.364;17.008;2022-11-15T01:34:01;40.72;;;23.77;;
76202;SDS011;64985;46.364;17.008;2022-11-15T01:40:06;37.57;;;21.50;;
76202;SDS011;64985;46.364;17.008;2022-11-15T01:43:19;43.88;;;23.23;;
76202;SDS011;64985;46.364;17.008;2022-11-15T01:46:35;39.72;;;22.70;;
76202;SDS011;64985;46.364;17.008;2022-11-15T01:49:40;45.88;;;24.73;;
76202;SDS011;64985;46.364;17.008;2022-11-15T01:53:11;47.03;;;23.33;;
76202;SDS011;64985;46.364;17.008;2022-11-15T01:56:18;48.42;;;24.35;;
76202;SDS011;64985;46.364;17.008;2022-11-15T01:59:25;53.75;;;26.85;;
76202;SDS011;64985;46.364;17.008;2022-11-15T02:02:28;56.55;;;25.08;;
76202;SDS011;64985;46.364;17.008;2022-11-15T02:08:33;54.70;;;26.02;;
76202;SDS011;64985;46.364;17.008;2022-11-15T02:11:37;62.80;;;29.15;;
76202;SDS011;64985;46.364;17.008;2022-11-15T02:43:56;68.40;;;31.13;;
76202;SDS011;64985;46.364;17.008;2022-11-15T02:47:09;74.50;;;29.50;;
76202;SDS011;64985;46.364;17.008;2022-11-15T02:50:18;73.82;;;30.17;;
76202;SDS011;64985;46.364;17.008;2022-11-15T02:53:25;73.47;;;29.65;;
76202;SDS011;64985;46.364;17.008;2022-11-15T02:56:29;72.03;;;29.48;;
76202;SDS011;64985;46.364;17.008;2022-11-15T03:12:55;51.75;;;25.45;;
76202;SDS011;64985;46.364;17.008;2022-11-15T03:16:24;53.38;;;24.50;;
76202;SDS011;64985;46.364;17.008;2022-11-15T03:19:45;50.25;;;24.52;;
76202;SDS011;64985;46.364;17.008;2022-11-15T03:22:50;51.15;;;23.38;;
76202;SDS011;64985;46.364;17.008;2022-11-15T03:25:58;42.20;;;22.02;;
76202;SDS011;64985;46.364;17.008;2022-11-15T03:29:07;44.80;;;22.55;;
76202;SDS011;64985;46.364;17.008;2022-11-15T03:32:20;49.08;;;22.33;;
76202;SDS011;64985;46.364;17.008;2022-11-15T03:35:35;43.63;;;23.15;;
76202;SDS011;64985;46.364;17.008;2022-11-15T03:38:40;48.70;;;22.42;;
76202;SDS011;64985;46.364;17.008;2022-11-15T03:44:58;40.15;;;20.63;;
76202;SDS011;64985;46.364;17.008;2022-11-15T03:48:24;37.88;;;21.60;;
76202;SDS011;64985;46.364;17.008;2022-11-15T03:51:32;32.97;;;18.73;;
76202;SDS011;64985;46.364;17.008;2022-11-15T03:57:37;30.53;;;17.00;;
76202;SDS011;64985;46.364;17.008;2022-11-15T04:00:43;33.60;;;18.90;;
76202;SDS011;64985;46.364;17.008;2022-11-15T04:03:46;36.95;;;19.67;;
76202;SDS011;64985;46.364;17.008;2022-11-15T04:06:48;33.22;;;19.10;;
76202;SDS011;64985;46.364;17.008;2022-11-15T04:09:59;30.25;;;18.20;;
76202;SDS011;64985;46.364;17.008;2022-11-15T04:13:04;34.38;;;19.02;;
76202;SDS011;64985;46.364;17.008;2022-11-15T04:19:09;30.30;;;17.87;;
76202;SDS011;64985;46.364;17.008;2022-11-15T04:22:30;29.80;;;16.77;;
76202;SDS011;64985;46.364;17.008;2022-11-15T04:25:52;34.42;;;19.20;;
76202;SDS011;64985;46.364;17.008;2022-11-15T04:28:55;31.35;;;18.27;;
76202;SDS011;64985;46.364;17.008;2022-11-15T04:32:16;33.03;;;18.45;;
76202;SDS011;64985;46.364;17.008;2022-11-15T04:35:19;32.63;;;19.50;;
76202;SDS011;64985;46.364;17.008;2022-11-15T04:41:24;28.90;;;18.37;;
76202;SDS011;64985;46.364;17.008;2022-11-15T04:44:26;28.17;;;16.92;;
76202;SDS011;64985;46.364;17.008;2022-11-15T04:47:29;29.15;;;18.33;;
76202;SDS011;64985;46.364;17.008;2022-11-15T04:50:33;29.05;;;17.23;;
76202;SDS011;64985;46.364;17.008;2022-11-15T04:53:36;24.85;;;16.13;;
76202;SDS011;64985;46.364;17.008;2022-11-15T04:56:38;28.08;;;17.45;;
76202;SDS011;64985;46.364;17.008;2022-11-15T04:59:41;29.73;;;17.77;;
76202;SDS011;64985;46.364;17.008;2022-11-15T05:02:43;28.98;;;17.67;;
76202;SDS011;64985;46.364;17.008;2022-11-15T05:06:04;32.60;;;18.83;;
76202;SDS011;64985;46.364;17.008;2022-11-15T05:09:07;29.35;;;18.92;;
76202;SDS011;64985;46.364;17.008;2022-11-15T05:12:10;31.05;;;19.83;;
76202;SDS011;64985;46.364;17.008;2022-11-15T05:15:13;35.22;;;21.20;;
76202;SDS011;64985;46.364;17.008;2022-11-15T05:18:15;34.33;;;21.23;;
76202;SDS011;64985;46.364;17.008;2022-11-15T05:21:24;36.38;;;19.80;;
76202;SDS011;64985;46.364;17.008;2022-11-15T05:27:29;36.87;;;20.27;;
76202;SDS011;64985;46.364;17.008;2022-11-15T05:30:31;44.60;;;23.83;;
76202;SDS011;64985;46.364;17.008;2022-11-15T05:33:34;37.03;;;21.65;;
76202;SDS011;64985;46.364;17.008;2022-11-15T05:36:41;37.60;;;21.65;;
76202;SDS011;64985;46.364;17.008;2022-11-15T05:39:44;38.17;;;22.15;;
76202;SDS011;64985;46.364;17.008;2022-11-15T05:42:47;38.17;;;20.50;;
76202;SDS011;64985;46.364;17.008;2022-11-15T05:45:50;35.90;;;20.08;;
76202;SDS011;64985;46.364;17.008;2022-11-15T05:48:52;29.20;;;19.35;;
76202;SDS011;64985;46.364;17.008;2022-11-15T05:51:56;37.30;;;20.90;;
76202;SDS011;64985;46.364;17.008;2022-11-15T05:55:00;36.88;;;20.60;;
76202;SDS011;64985;46.364;17.008;2022-11-15T05:58:04;33.50;;;19.98;;
76202;SDS011;64985;46.364;17.008;2022-11-15T06:01:07;37.95;;;20.77;;
76202;SDS011;64985;46.364;17.008;2022-11-15T06:04:09;32.00;;;19.80;;
76202;SDS011;64985;46.364;17.008;2022-11-15T06:07:12;37.00;;;20.55;;
76202;SDS011;64985;46.364;17.008;2022-11-15T06:13:17;34.25;;;19.27;;
76202;SDS011;64985;46.364;17.008;2022-11-15T06:16:19;31.40;;;19.80;;
76202;SDS011;64985;46.364;17.008;2022-11-15T06:19:22;31.20;;;19.52;;
76202;SDS011;64985;46.364;17.008;2022-11-15T06:22:24;31.80;;;18.85;;
76202;SDS011;64985;46.364;17.008;2022-11-15T06:25:27;35.67;;;20.38;;
76202;SDS011;64985;46.364;17.008;2022-11-15T06:28:31;37.17;;;21.60;;
76202;SDS011;64985;46.364;17.008;2022-11-15T06:31:34;37.60;;;21.45;;
76202;SDS011;64985;46.364;17.008;2022-11-15T06:37:39;28.53;;;18.63;;
